createdAt,value
2017-07-27T00:01:40.925Z,24.56
2017-07-27T00:04:08.477Z,24.49
2017-07-27T00:06:36.049Z,24.57
2017-07-27T00:09:03.545Z,24.54
2017-07-27T00:11:31.042Z,24.60
2017-07-27T00:13:58.646Z,24.54
2017-07-27T00:16:26.142Z,24.60
2017-07-27T00:18:53.649Z,24.48
2017-07-27T00:21:21.206Z,24.45
2017-07-27T00:23:48.713Z,24.46
2017-07-27T00:26:16.253Z,24.55
2017-07-27T00:28:43.750Z,24.53
2017-07-27T00:31:11.250Z,24.50
2017-07-27T00:33:38.824Z,24.50
2017-07-27T00:36:06.316Z,24.50
2017-07-27T00:38:33.833Z,24.46
2017-07-27T00:41:01.405Z,24.48
2017-07-27T00:43:28.909Z,24.47
2017-07-27T00:45:56.467Z,24.39
2017-07-27T00:48:23.980Z,24.51
2017-07-27T00:50:51.489Z,24.33
2017-07-27T00:53:19.053Z,24.40
2017-07-27T00:55:46.603Z,24.50
2017-07-27T00:58:14.114Z,24.43
2017-07-27T01:00:41.677Z,24.42
2017-07-27T01:03:09.182Z,24.33
2017-07-27T01:05:36.681Z,24.29
2017-07-27T01:08:04.239Z,24.24
2017-07-27T01:10:31.746Z,24.15
2017-07-27T01:12:59.248Z,24.11
2017-07-27T01:15:26.808Z,24.09
2017-07-27T01:17:54.314Z,24.09
2017-07-27T01:20:21.813Z,24.10
2017-07-27T01:22:49.406Z,24.08
2017-07-27T01:25:16.948Z,24.06
2017-07-27T01:27:44.500Z,24.04
2017-07-27T01:30:12.026Z,23.99
2017-07-27T01:32:39.574Z,24.02
2017-07-27T01:35:07.076Z,23.98
2017-07-27T01:37:34.573Z,23.96
2017-07-27T01:40:02.117Z,23.97
2017-07-27T01:42:29.616Z,23.90
2017-07-27T01:44:57.166Z,23.86
2017-07-27T01:47:24.657Z,23.94
2017-07-27T01:49:52.173Z,23.86
2017-07-27T01:52:19.736Z,23.85
2017-07-27T01:54:47.237Z,23.84
2017-07-27T01:57:14.777Z,23.83
2017-07-27T01:59:42.308Z,23.81
2017-07-27T02:02:09.830Z,23.81
2017-07-27T02:04:37.375Z,23.84
2017-07-27T02:07:04.873Z,23.76
2017-07-27T02:09:32.378Z,23.76
2017-07-27T02:11:59.920Z,23.73
2017-07-27T02:14:27.419Z,23.71
2017-07-27T02:16:54.969Z,23.73
2017-07-27T02:19:22.486Z,23.69
2017-07-27T02:21:50.009Z,23.65
2017-07-27T02:24:17.588Z,23.60
2017-07-27T02:26:45.127Z,23.62
2017-07-27T02:29:12.629Z,23.59
2017-07-27T02:31:40.175Z,23.59
2017-07-27T02:34:07.688Z,23.63
2017-07-27T02:36:35.194Z,23.59
2017-07-27T02:39:02.730Z,23.60
2017-07-27T02:41:30.265Z,23.60
2017-07-27T02:43:57.826Z,23.55
2017-07-27T02:46:25.320Z,23.54
2017-07-27T02:48:52.821Z,23.52
2017-07-27T02:51:20.357Z,23.53
2017-07-27T02:53:47.899Z,23.49
2017-07-27T02:56:15.450Z,23.48
2017-07-27T02:58:42.985Z,23.42
2017-07-27T03:01:10.524Z,23.45
2017-07-27T03:03:38.029Z,23.46
2017-07-27T03:06:05.573Z,23.43
2017-07-27T03:08:33.097Z,23.40
2017-07-27T03:11:00.636Z,23.42
2017-07-27T03:13:28.195Z,23.39
2017-07-27T03:15:55.759Z,23.40
2017-07-27T03:18:23.301Z,23.43
2017-07-27T03:20:50.852Z,23.40
2017-07-27T03:23:18.411Z,23.33
2017-07-27T03:25:45.947Z,23.35
2017-07-27T03:28:13.486Z,23.27
2017-07-27T03:30:41.005Z,23.34
2017-07-27T03:33:08.549Z,23.35
2017-07-27T03:35:36.064Z,23.31
2017-07-27T03:38:03.572Z,23.34
2017-07-27T03:40:31.129Z,23.35
2017-07-27T03:42:58.624Z,23.29
2017-07-27T03:45:26.128Z,23.28
2017-07-27T03:47:53.693Z,23.27
2017-07-27T03:50:21.211Z,23.33
2017-07-27T03:52:48.756Z,23.42
2017-07-27T03:55:16.293Z,23.49
2017-07-27T03:57:43.846Z,23.56
2017-07-27T04:00:11.346Z,23.54
2017-07-27T04:02:38.849Z,23.58
2017-07-27T04:05:06.394Z,23.58
2017-07-27T04:07:33.982Z,23.66
2017-07-27T04:10:01.499Z,23.65
2017-07-27T04:12:29.013Z,23.73
2017-07-27T04:15:05.018Z,23.77
2017-07-27T04:17:32.521Z,23.82
2017-07-27T04:20:00.053Z,23.82
2017-07-27T04:22:27.596Z,23.79
2017-07-27T04:24:55.121Z,23.88
2017-07-27T04:27:22.617Z,23.89
2017-07-27T04:29:50.160Z,23.92
2017-07-27T04:32:17.665Z,23.94
2017-07-27T04:34:45.217Z,23.94
2017-07-27T04:37:12.712Z,24.00
2017-07-27T04:39:40.221Z,23.99
2017-07-27T04:42:07.786Z,24.00
2017-07-27T04:44:35.290Z,24.09
2017-07-27T04:47:02.789Z,24.07
2017-07-27T04:49:30.343Z,24.06
2017-07-27T04:51:57.937Z,24.13
2017-07-27T04:54:25.434Z,24.13
2017-07-27T04:56:52.933Z,24.19
2017-07-27T04:59:20.521Z,24.23
2017-07-27T05:01:48.063Z,24.22
2017-07-27T05:04:15.633Z,24.23
2017-07-27T05:06:43.193Z,24.28
2017-07-27T05:09:10.788Z,24.32
2017-07-27T05:11:38.367Z,24.31
2017-07-27T05:14:05.895Z,24.29
2017-07-27T05:16:34.326Z,24.34
2017-07-27T05:19:01.849Z,24.34
2017-07-27T05:21:29.370Z,24.37
2017-07-27T05:23:56.968Z,24.33
2017-07-27T05:26:24.591Z,24.32
2017-07-27T05:28:52.272Z,24.35
2017-07-27T05:31:19.895Z,24.35
2017-07-27T05:33:47.812Z,24.36
2017-07-27T05:36:15.786Z,24.40
2017-07-27T05:38:44.993Z,24.44
2017-07-27T05:41:12.715Z,24.39
2017-07-27T05:43:40.348Z,24.42
2017-07-27T05:46:07.969Z,24.41
2017-07-27T05:48:36.340Z,24.46
2017-07-27T05:51:04.226Z,24.44
2017-07-27T05:53:31.908Z,24.45
2017-07-27T05:55:59.745Z,24.36
2017-07-27T05:58:27.334Z,24.49
2017-07-27T06:00:55.301Z,24.45
2017-07-27T06:03:24.094Z,24.50
2017-07-27T06:05:58.489Z,24.50
2017-07-27T06:08:26.583Z,24.47
2017-07-27T06:10:55.991Z,24.50
2017-07-27T06:13:23.674Z,24.45
2017-07-27T06:15:53.901Z,24.51
2017-07-27T06:18:31.562Z,24.55
2017-07-27T06:21:00.524Z,24.58
2017-07-27T06:23:30.822Z,24.59
2017-07-27T06:26:02.690Z,24.63
2017-07-27T06:28:35.058Z,24.63
2017-07-27T06:31:06.028Z,24.64
2017-07-27T06:33:34.511Z,24.68
2017-07-27T06:36:14.316Z,24.63
2017-07-27T06:38:43.217Z,24.62
2017-07-27T06:41:14.048Z,24.59
2017-07-27T06:56:07.515Z,24.80
2017-07-27T07:05:01.756Z,24.89
2017-07-27T07:15:08.562Z,24.96
2017-07-27T07:20:58.940Z,24.86
2017-07-27T07:36:56.236Z,25.11
2017-07-27T07:39:29.514Z,25.15
2017-07-27T07:44:40.353Z,25.21
2017-07-27T07:47:11.259Z,25.25
2017-07-27T07:49:40.768Z,25.18
2017-07-27T07:52:11.286Z,25.25
2017-07-27T07:54:45.850Z,25.22
2017-07-27T07:57:25.448Z,25.32
2017-07-27T07:59:59.249Z,25.52
2017-07-27T08:02:57.159Z,25.51
2017-07-27T08:05:59.455Z,25.63
2017-07-27T08:08:57.123Z,25.62
2017-07-27T08:11:25.964Z,25.60
2017-07-27T08:13:55.344Z,25.60
2017-07-27T08:16:25.437Z,25.63
2017-07-27T08:18:57.836Z,25.64
2017-07-27T08:21:41.784Z,25.61
2017-07-27T08:24:17.998Z,25.66
2017-07-27T08:26:48.008Z,25.66
2017-07-27T08:31:52.639Z,25.69
2017-07-27T08:34:23.247Z,25.66
2017-07-27T08:36:53.250Z,25.68
2017-07-27T08:39:25.555Z,25.69
2017-07-27T08:42:15.990Z,25.74
2017-07-27T08:44:47.158Z,25.72
2017-07-27T08:47:18.372Z,25.74
2017-07-27T08:49:52.414Z,25.72
2017-07-27T08:52:26.742Z,25.75
2017-07-27T08:54:57.010Z,25.70
2017-07-27T08:57:25.772Z,25.71
2017-07-27T08:59:55.572Z,25.79
2017-07-27T09:02:26.832Z,25.78
2017-07-27T09:04:56.552Z,25.76
2017-07-27T09:07:25.440Z,25.74
2017-07-27T09:10:00.857Z,25.68
2017-07-27T09:15:19.606Z,25.72
2017-07-27T10:18:58.509Z,25.85
2017-07-27T10:24:57.943Z,25.84
2017-07-27T10:27:36.990Z,25.82
2017-07-27T10:30:13.157Z,25.88
2017-07-27T10:32:41.818Z,25.88
2017-07-27T10:35:14.823Z,25.88
2017-07-27T10:37:42.846Z,25.74
2017-07-27T10:40:33.571Z,25.79
2017-07-27T10:43:02.372Z,25.88
2017-07-27T10:45:30.842Z,25.92
2017-07-27T10:47:58.818Z,25.94
2017-07-27T10:50:27.316Z,25.90
2017-07-27T10:53:00.064Z,25.95
2017-07-27T10:55:31.430Z,25.96
2017-07-27T10:57:59.095Z,25.96
2017-07-27T11:00:32.709Z,25.96
2017-07-27T11:03:01.185Z,25.91
2017-07-27T11:05:29.545Z,25.95
2017-07-27T11:08:02.743Z,26.00
2017-07-27T11:14:01.581Z,25.96
2017-07-27T11:16:43.272Z,25.84
2017-07-27T11:19:28.827Z,25.94
2017-07-27T11:21:59.257Z,25.89
2017-07-27T11:24:27.386Z,25.88
2017-07-27T11:55:49.524Z,26.04
2017-07-27T11:58:22.227Z,26.07
2017-07-27T12:00:59.128Z,26.08
2017-07-27T12:03:40.309Z,26.12
2017-07-27T12:06:14.856Z,26.09
2017-07-27T12:09:09.665Z,26.07
2017-07-27T12:11:37.907Z,26.14
2017-07-27T12:18:21.879Z,26.11
2017-07-27T12:21:25.730Z,26.09
2017-07-27T13:00:49.440Z,26.18
2017-07-27T13:03:20.006Z,26.21
2017-07-27T13:05:58.463Z,26.14
2017-07-27T13:09:05.342Z,26.16
2017-07-27T13:11:34.955Z,26.24
2017-07-27T13:14:05.520Z,26.12
2017-07-27T13:22:58.406Z,26.11
2017-07-27T13:31:07.025Z,26.13
2017-07-27T13:37:29.218Z,26.06
2017-07-27T13:40:23.969Z,26.11
2017-07-27T13:47:09.855Z,26.03
2017-07-27T13:49:44.300Z,26.11
2017-07-27T13:52:16.921Z,26.14
2017-07-27T13:54:53.735Z,26.13
2017-07-27T14:23:36.534Z,25.98
2017-07-27T14:26:12.818Z,26.01
2017-07-27T14:29:13.164Z,26.02
2017-07-27T14:41:25.566Z,26.00
2017-07-27T14:43:55.581Z,25.99
2017-07-27T14:46:31.054Z,26.01
2017-07-27T14:49:02.446Z,25.96
2017-07-27T14:51:39.027Z,26.00
2017-07-27T14:54:15.824Z,25.98
2017-07-27T14:56:49.079Z,26.01
2017-07-27T14:59:27.261Z,25.96
2017-07-27T15:01:58.846Z,25.97
2017-07-27T15:04:32.230Z,25.95
2017-07-27T15:07:06.320Z,26.00
2017-07-27T15:09:39.007Z,25.97
2017-07-27T15:12:10.122Z,25.98
2017-07-27T15:14:52.539Z,25.97
2017-07-27T15:17:24.468Z,26.01
2017-07-27T15:19:55.336Z,26.00
2017-07-27T15:22:23.552Z,25.99
2017-07-27T15:24:51.747Z,25.97
2017-07-27T15:27:27.307Z,25.99
2017-07-27T15:30:02.046Z,26.01
2017-07-27T15:32:29.690Z,25.91
2017-07-27T15:34:58.017Z,25.94
2017-07-27T15:37:26.779Z,25.97
2017-07-27T15:39:54.665Z,25.95
2017-07-27T15:42:22.489Z,25.87
2017-07-27T15:44:50.138Z,25.88
2017-07-27T15:47:17.698Z,25.95
2017-07-27T15:50:06.594Z,25.89
2017-07-27T15:52:34.157Z,25.96
2017-07-27T15:55:01.718Z,25.87
2017-07-27T16:10:12.088Z,25.83
2017-07-27T16:12:40.305Z,25.88
2017-07-27T16:15:07.893Z,25.81
2017-07-27T16:17:35.468Z,25.82
2017-07-27T16:30:12.151Z,25.79
2017-07-27T16:32:39.734Z,25.81
2017-07-27T16:35:07.256Z,25.80
2017-07-27T16:37:34.767Z,25.75
2017-07-27T16:40:02.365Z,25.75
2017-07-27T16:42:29.960Z,25.75
2017-07-27T16:44:57.506Z,25.76
2017-07-27T16:47:25.063Z,25.67
2017-07-27T16:49:52.633Z,25.66
2017-07-27T16:52:20.284Z,25.56
2017-07-27T16:54:47.841Z,25.60
2017-07-27T16:57:15.619Z,25.59
2017-07-27T16:59:43.158Z,25.63
2017-07-27T17:02:10.706Z,25.67
2017-07-27T17:04:38.313Z,25.69
2017-07-27T17:07:05.866Z,25.70
2017-07-27T17:09:40.537Z,25.61
2017-07-27T17:12:08.106Z,25.66
2017-07-27T17:14:35.645Z,25.73
2017-07-27T17:17:03.157Z,25.74
2017-07-27T17:19:30.712Z,25.72
2017-07-27T17:21:58.401Z,25.70
2017-07-27T17:24:25.974Z,25.75
2017-07-27T17:26:53.484Z,25.74
2017-07-27T17:29:21.064Z,25.73
2017-07-27T17:31:48.659Z,25.75
2017-07-27T17:34:16.347Z,25.80
2017-07-27T17:36:43.901Z,25.84
2017-07-27T17:39:11.437Z,25.88
2017-07-27T17:41:39.032Z,25.91
2017-07-27T17:44:06.560Z,25.92
2017-07-27T17:46:34.136Z,25.95
2017-07-27T17:49:01.641Z,25.95
2017-07-27T17:51:29.169Z,25.94
2017-07-27T17:53:56.745Z,25.99
2017-07-27T17:56:24.295Z,26.00
2017-07-27T17:58:51.818Z,25.99
2017-07-27T18:01:19.394Z,25.96
2017-07-27T18:03:47.067Z,25.96
2017-07-27T18:06:14.580Z,25.95
2017-07-27T18:08:42.113Z,25.92
2017-07-27T18:11:09.801Z,25.91
2017-07-27T18:13:37.322Z,25.89
2017-07-27T18:16:04.871Z,25.86
2017-07-27T18:18:32.373Z,25.83
2017-07-27T18:20:59.931Z,25.81
2017-07-27T18:23:27.435Z,25.78
2017-07-27T18:25:54.933Z,25.77
2017-07-27T18:28:22.551Z,25.76
2017-07-27T18:30:50.102Z,25.70
2017-07-27T18:33:17.637Z,25.70
2017-07-27T18:35:45.487Z,25.70
2017-07-27T18:38:13.033Z,25.66
2017-07-27T18:40:40.594Z,25.65
2017-07-27T18:43:08.095Z,25.65
2017-07-27T18:45:35.656Z,25.60
2017-07-27T18:48:03.225Z,25.58
2017-07-27T18:50:30.730Z,25.59
2017-07-27T18:52:58.236Z,25.56
2017-07-27T18:55:25.797Z,25.57
2017-07-27T18:57:53.296Z,25.53
2017-07-27T19:00:20.879Z,25.54
2017-07-27T19:02:48.443Z,25.54
2017-07-27T19:05:15.997Z,25.51
2017-07-27T19:07:43.522Z,25.54
2017-07-27T19:10:11.080Z,25.51
2017-07-27T19:12:38.595Z,25.48
2017-07-27T19:15:06.093Z,25.47
2017-07-27T19:17:33.668Z,25.48
2017-07-27T19:20:01.171Z,25.48
2017-07-27T19:22:28.693Z,25.45
2017-07-27T19:24:56.245Z,25.48
2017-07-27T19:27:23.759Z,25.42
2017-07-27T19:29:51.279Z,25.42
2017-07-27T19:32:18.833Z,25.44
2017-07-27T19:34:46.380Z,25.44
2017-07-27T19:37:13.882Z,25.39
2017-07-27T19:39:41.422Z,25.43
2017-07-27T19:42:08.987Z,25.39
2017-07-27T19:44:36.486Z,25.39
2017-07-27T19:47:03.989Z,25.37
2017-07-27T19:49:31.526Z,25.22
2017-07-27T19:51:59.035Z,25.19
2017-07-27T19:57:00.381Z,25.21
2017-07-27T19:59:28.067Z,25.11
2017-07-27T20:01:55.580Z,25.13
2017-07-27T20:04:23.122Z,25.00
2017-07-27T20:06:50.769Z,24.94
2017-07-27T20:09:18.324Z,24.97
2017-07-27T20:11:46.292Z,24.91
2017-07-27T20:14:14.227Z,24.92
2017-07-27T20:16:41.756Z,24.92
2017-07-27T20:19:09.285Z,24.79
2017-07-27T20:21:36.831Z,24.92
2017-07-27T20:24:04.384Z,24.94
2017-07-27T20:26:31.900Z,24.85
2017-07-27T20:28:59.457Z,24.90
2017-07-27T20:31:26.954Z,24.95
2017-07-27T20:33:54.469Z,24.90
2017-07-27T20:38:55.821Z,24.90
2017-07-27T20:41:23.371Z,24.94
2017-07-27T20:43:50.975Z,24.82
2017-07-27T20:46:18.473Z,24.75
2017-07-27T20:48:46.059Z,24.73
2017-07-27T20:51:13.605Z,24.71
2017-07-27T20:53:41.149Z,24.79
2017-07-27T20:56:08.680Z,24.74
2017-07-27T20:58:36.301Z,24.81
2017-07-27T21:01:03.830Z,24.72
2017-07-27T21:03:31.337Z,24.78
2017-07-27T21:05:58.913Z,24.75
2017-07-27T21:08:27.401Z,24.74
2017-07-27T21:10:54.904Z,24.72
2017-07-27T21:13:22.505Z,24.81
2017-07-27T21:15:50.042Z,24.68
2017-07-27T21:18:17.713Z,24.76
2017-07-27T21:20:45.375Z,24.74
2017-07-27T21:23:12.889Z,24.78
2017-07-27T21:25:40.494Z,24.66
2017-07-27T21:28:08.069Z,24.64
2017-07-27T21:30:35.599Z,24.71
2017-07-27T21:33:03.170Z,24.61
2017-07-27T21:35:30.955Z,24.70
2017-07-27T21:37:58.529Z,24.61
2017-07-27T21:40:26.051Z,24.60
2017-07-27T21:42:53.559Z,24.62
2017-07-27T21:45:21.737Z,24.62
2017-07-27T21:47:49.311Z,24.65
2017-07-27T21:50:17.289Z,24.65
2017-07-27T21:52:44.948Z,24.64
2017-07-27T21:55:12.494Z,24.62
2017-07-27T21:57:40.059Z,24.62
2017-07-27T22:00:07.657Z,24.53
2017-07-27T22:02:35.216Z,24.58
2017-07-27T22:05:02.737Z,24.60
2017-07-27T22:07:30.249Z,24.58
2017-07-27T22:09:57.821Z,24.54
2017-07-27T22:12:25.380Z,24.45
2017-07-27T22:14:52.885Z,24.46
2017-07-27T22:17:20.674Z,24.49
2017-07-27T22:19:48.255Z,24.54
2017-07-27T22:22:15.981Z,24.53
2017-07-27T22:24:43.537Z,24.47
2017-07-27T22:27:11.052Z,24.50
2017-07-27T22:29:38.574Z,24.41
2017-07-27T22:32:06.243Z,24.47
2017-07-27T22:34:33.818Z,24.47
2017-07-27T22:37:01.459Z,24.50
2017-07-27T22:39:30.001Z,24.44
2017-07-27T22:41:57.549Z,24.37
2017-07-27T22:44:25.081Z,24.38
2017-07-27T22:46:52.654Z,24.42
2017-07-27T22:49:20.712Z,24.40
2017-07-27T22:51:48.470Z,24.40
2017-07-27T22:54:16.174Z,24.36
2017-07-27T22:56:43.710Z,24.38
2017-07-27T22:59:11.297Z,24.30
2017-07-27T23:01:38.826Z,24.26
2017-07-27T23:04:06.352Z,24.25
2017-07-27T23:06:33.928Z,24.26
2017-07-27T23:09:01.592Z,24.27
2017-07-27T23:11:29.134Z,24.33
2017-07-27T23:13:56.654Z,24.30
2017-07-27T23:16:24.234Z,24.21
2017-07-27T23:18:52.569Z,24.27
2017-07-27T23:21:20.261Z,24.31
2017-07-27T23:23:47.891Z,24.28
2017-07-27T23:26:15.785Z,24.33
2017-07-27T23:28:43.515Z,24.28
2017-07-27T23:31:11.068Z,24.28
2017-07-27T23:33:38.573Z,24.23
2017-07-27T23:36:06.134Z,24.26
2017-07-27T23:38:33.745Z,24.17
2017-07-27T23:41:01.260Z,24.18
2017-07-27T23:43:28.777Z,24.16
2017-07-27T23:45:56.478Z,24.23
2017-07-27T23:48:23.993Z,24.13
2017-07-27T23:50:51.808Z,24.17
2017-07-27T23:53:19.641Z,24.16
2017-07-27T23:55:47.398Z,24.17
2017-07-27T23:58:15.148Z,24.20
